sensor_id;sensor_type;location;lat;lon;timestamp;P1;durP1;ratioP1;P2;durP2;ratioP2
54539;SDS011;40438;52.992;18.604;2023-06-14T00:00:02;6.60;;;4.18;;
54539;SDS011;40438;52.992;18.604;2023-06-14T00:02:30;10.90;;;4.97;;
54539;SDS011;40438;52.992;18.604;2023-06-14T00:04:56;8.45;;;4.50;;
54539;SDS011;40438;52.992;18.604;2023-06-14T00:07:33;8.07;;;4.18;;
54539;SDS011;40438;52.992;18.604;2023-06-14T00:10:00;5.97;;;4.00;;
54539;SDS011;40438;52.992;18.604;2023-06-14T00:12:25;6.43;;;4.13;;
54539;SDS011;40438;52.992;18.604;2023-06-14T00:14:51;5.88;;;3.70;;
54539;SDS011;40438;52.992;18.604;2023-06-14T00:17:17;7.68;;;4.65;;
54539;SDS011;40438;52.992;18.604;2023-06-14T00:19:43;7.55;;;4.60;;
54539;SDS011;40438;52.992;18.604;2023-06-14T00:22:08;6.78;;;4.75;;
54539;SDS011;40438;52.992;18.604;2023-06-14T00:24:36;7.18;;;4.70;;
54539;SDS011;40438;52.992;18.604;2023-06-14T00:27:01;6.40;;;4.75;;
54539;SDS011;40438;52.992;18.604;2023-06-14T00:29:28;6.20;;;4.68;;
54539;SDS011;40438;52.992;18.604;2023-06-14T00:31:55;10.45;;;4.78;;
54539;SDS011;40438;52.992;18.604;2023-06-14T00:34:21;9.73;;;4.30;;
54539;SDS011;40438;52.992;18.604;2023-06-14T00:36:47;6.25;;;4.07;;
54539;SDS011;40438;52.992;18.604;2023-06-14T00:39:13;8.00;;;4.95;;
54539;SDS011;40438;52.992;18.604;2023-06-14T00:41:40;5.97;;;4.30;;
54539;SDS011;40438;52.992;18.604;2023-06-14T00:44:06;6.65;;;4.88;;
54539;SDS011;40438;52.992;18.604;2023-06-14T00:46:33;8.10;;;5.07;;
54539;SDS011;40438;52.992;18.604;2023-06-14T00:48:59;10.23;;;4.80;;
54539;SDS011;40438;52.992;18.604;2023-06-14T00:51:26;8.20;;;5.15;;
54539;SDS011;40438;52.992;18.604;2023-06-14T00:53:52;6.63;;;5.22;;
54539;SDS011;40438;52.992;18.604;2023-06-14T00:56:18;9.77;;;5.10;;
54539;SDS011;40438;52.992;18.604;2023-06-14T00:58:45;6.85;;;5.10;;
54539;SDS011;40438;52.992;18.604;2023-06-14T01:01:11;7.07;;;4.88;;
54539;SDS011;40438;52.992;18.604;2023-06-14T01:03:37;7.63;;;5.38;;
54539;SDS011;40438;52.992;18.604;2023-06-14T01:06:05;7.55;;;5.03;;
54539;SDS011;40438;52.992;18.604;2023-06-14T01:08:40;6.60;;;4.70;;
54539;SDS011;40438;52.992;18.604;2023-06-14T01:11:15;6.30;;;4.80;;
54539;SDS011;40438;52.992;18.604;2023-06-14T01:13:47;6.07;;;4.70;;
54539;SDS011;40438;52.992;18.604;2023-06-14T01:16:15;8.52;;;4.45;;
54539;SDS011;40438;52.992;18.604;2023-06-14T01:18:42;7.53;;;4.75;;
54539;SDS011;40438;52.992;18.604;2023-06-14T01:21:19;9.65;;;5.32;;
54539;SDS011;40438;52.992;18.604;2023-06-14T01:23:49;5.95;;;4.97;;
54539;SDS011;40438;52.992;18.604;2023-06-14T01:26:15;8.82;;;4.75;;
54539;SDS011;40438;52.992;18.604;2023-06-14T01:28:41;9.10;;;4.50;;
54539;SDS011;40438;52.992;18.604;2023-06-14T01:31:07;6.30;;;4.80;;
54539;SDS011;40438;52.992;18.604;2023-06-14T01:33:33;6.13;;;4.53;;
54539;SDS011;40438;52.992;18.604;2023-06-14T01:36:01;6.75;;;4.35;;
54539;SDS011;40438;52.992;18.604;2023-06-14T01:38:30;7.22;;;5.10;;
54539;SDS011;40438;52.992;18.604;2023-06-14T01:40:58;6.10;;;4.60;;
54539;SDS011;40438;52.992;18.604;2023-06-14T01:43:26;7.45;;;4.80;;
54539;SDS011;40438;52.992;18.604;2023-06-14T01:45:53;8.73;;;5.35;;
54539;SDS011;40438;52.992;18.604;2023-06-14T01:48:20;6.25;;;4.45;;
54539;SDS011;40438;52.992;18.604;2023-06-14T01:50:47;6.90;;;4.68;;
54539;SDS011;40438;52.992;18.604;2023-06-14T01:53:13;7.22;;;4.97;;
54539;SDS011;40438;52.992;18.604;2023-06-14T01:55:39;6.68;;;4.90;;
54539;SDS011;40438;52.992;18.604;2023-06-14T01:58:09;7.13;;;4.85;;
54539;SDS011;40438;52.992;18.604;2023-06-14T02:00:35;5.97;;;4.40;;
54539;SDS011;40438;52.992;18.604;2023-06-14T02:03:01;7.47;;;4.70;;
54539;SDS011;40438;52.992;18.604;2023-06-14T02:05:27;7.75;;;5.40;;
54539;SDS011;40438;52.992;18.604;2023-06-14T02:07:53;9.40;;;5.35;;
54539;SDS011;40438;52.992;18.604;2023-06-14T02:10:19;9.25;;;5.35;;
54539;SDS011;40438;52.992;18.604;2023-06-14T02:12:46;7.72;;;5.05;;
54539;SDS011;40438;52.992;18.604;2023-06-14T02:15:13;12.40;;;6.32;;
54539;SDS011;40438;52.992;18.604;2023-06-14T02:17:39;8.32;;;5.68;;
54539;SDS011;40438;52.992;18.604;2023-06-14T02:20:06;10.38;;;5.93;;
54539;SDS011;40438;52.992;18.604;2023-06-14T02:22:33;9.35;;;6.63;;
54539;SDS011;40438;52.992;18.604;2023-06-14T02:24:59;9.05;;;6.13;;
54539;SDS011;40438;52.992;18.604;2023-06-14T02:27:24;7.65;;;5.80;;
54539;SDS011;40438;52.992;18.604;2023-06-14T02:29:50;12.52;;;6.80;;
54539;SDS011;40438;52.992;18.604;2023-06-14T02:32:17;12.70;;;6.72;;
54539;SDS011;40438;52.992;18.604;2023-06-14T02:34:44;13.05;;;7.22;;
54539;SDS011;40438;52.992;18.604;2023-06-14T02:37:10;11.65;;;6.47;;
54539;SDS011;40438;52.992;18.604;2023-06-14T02:39:36;11.00;;;6.57;;
54539;SDS011;40438;52.992;18.604;2023-06-14T02:42:03;13.07;;;7.43;;
54539;SDS011;40438;52.992;18.604;2023-06-14T02:44:29;9.32;;;6.85;;
54539;SDS011;40438;52.992;18.604;2023-06-14T02:46:55;10.32;;;6.97;;
54539;SDS011;40438;52.992;18.604;2023-06-14T02:49:22;10.77;;;7.43;;
54539;SDS011;40438;52.992;18.604;2023-06-14T02:51:48;10.93;;;7.68;;
54539;SDS011;40438;52.992;18.604;2023-06-14T02:54:13;8.85;;;6.85;;
54539;SDS011;40438;52.992;18.604;2023-06-14T02:56:39;12.02;;;7.45;;
54539;SDS011;40438;52.992;18.604;2023-06-14T02:59:05;14.93;;;7.18;;
54539;SDS011;40438;52.992;18.604;2023-06-14T03:01:31;11.60;;;7.47;;
54539;SDS011;40438;52.992;18.604;2023-06-14T03:03:57;10.52;;;7.13;;
54539;SDS011;40438;52.992;18.604;2023-06-14T03:06:24;12.02;;;7.10;;
54539;SDS011;40438;52.992;18.604;2023-06-14T03:08:51;10.35;;;7.35;;
54539;SDS011;40438;52.992;18.604;2023-06-14T03:11:17;11.25;;;7.60;;
54539;SDS011;40438;52.992;18.604;2023-06-14T03:13:43;10.82;;;8.00;;
54539;SDS011;40438;52.992;18.604;2023-06-14T03:16:10;10.57;;;7.32;;
54539;SDS011;40438;52.992;18.604;2023-06-14T03:18:38;10.55;;;7.50;;
54539;SDS011;40438;52.992;18.604;2023-06-14T03:21:05;15.32;;;8.38;;
54539;SDS011;40438;52.992;18.604;2023-06-14T03:23:32;13.43;;;7.75;;
54539;SDS011;40438;52.992;18.604;2023-06-14T03:26:00;13.05;;;8.00;;
54539;SDS011;40438;52.992;18.604;2023-06-14T03:28:26;13.00;;;7.43;;
54539;SDS011;40438;52.992;18.604;2023-06-14T03:30:53;13.38;;;8.82;;
54539;SDS011;40438;52.992;18.604;2023-06-14T03:33:19;11.02;;;7.63;;
54539;SDS011;40438;52.992;18.604;2023-06-14T03:35:45;16.38;;;9.23;;
54539;SDS011;40438;52.992;18.604;2023-06-14T03:38:11;10.20;;;7.47;;
54539;SDS011;40438;52.992;18.604;2023-06-14T03:40:38;10.48;;;7.93;;
54539;SDS011;40438;52.992;18.604;2023-06-14T03:43:06;12.27;;;8.50;;
54539;SDS011;40438;52.992;18.604;2023-06-14T03:45:31;12.07;;;8.27;;
54539;SDS011;40438;52.992;18.604;2023-06-14T03:47:58;12.32;;;8.68;;
54539;SDS011;40438;52.992;18.604;2023-06-14T03:50:26;12.35;;;8.90;;
54539;SDS011;40438;52.992;18.604;2023-06-14T03:52:51;17.30;;;9.50;;
54539;SDS011;40438;52.992;18.604;2023-06-14T03:55:18;14.38;;;9.15;;
54539;SDS011;40438;52.992;18.604;2023-06-14T03:57:46;14.60;;;8.98;;
54539;SDS011;40438;52.992;18.604;2023-06-14T04:00:16;14.52;;;9.38;;
54539;SDS011;40438;52.992;18.604;2023-06-14T04:02:43;12.85;;;8.82;;
54539;SDS011;40438;52.992;18.604;2023-06-14T04:05:10;12.93;;;8.43;;
54539;SDS011;40438;52.992;18.604;2023-06-14T04:07:42;15.77;;;9.07;;
54539;SDS011;40438;52.992;18.604;2023-06-14T04:10:08;15.65;;;9.35;;
54539;SDS011;40438;52.992;18.604;2023-06-14T04:12:34;12.38;;;8.80;;
54539;SDS011;40438;52.992;18.604;2023-06-14T04:15:01;17.27;;;8.70;;
54539;SDS011;40438;52.992;18.604;2023-06-14T04:17:29;12.35;;;9.32;;
54539;SDS011;40438;52.992;18.604;2023-06-14T04:19:55;14.30;;;8.80;;
54539;SDS011;40438;52.992;18.604;2023-06-14T04:22:21;12.23;;;7.95;;
54539;SDS011;40438;52.992;18.604;2023-06-14T04:24:47;11.75;;;8.80;;
54539;SDS011;40438;52.992;18.604;2023-06-14T04:27:12;12.98;;;9.10;;
54539;SDS011;40438;52.992;18.604;2023-06-14T04:29:38;12.55;;;8.73;;
54539;SDS011;40438;52.992;18.604;2023-06-14T04:32:10;11.43;;;7.95;;
54539;SDS011;40438;52.992;18.604;2023-06-14T04:34:37;14.25;;;9.00;;
54539;SDS011;40438;52.992;18.604;2023-06-14T04:37:03;13.35;;;8.73;;
54539;SDS011;40438;52.992;18.604;2023-06-14T04:39:34;13.20;;;9.00;;
54539;SDS011;40438;52.992;18.604;2023-06-14T04:42:01;12.82;;;8.80;;
54539;SDS011;40438;52.992;18.604;2023-06-14T04:44:28;14.60;;;8.55;;
54539;SDS011;40438;52.992;18.604;2023-06-14T04:46:54;15.60;;;9.15;;
54539;SDS011;40438;52.992;18.604;2023-06-14T04:49:23;14.98;;;8.60;;
54539;SDS011;40438;52.992;18.604;2023-06-14T04:51:49;15.02;;;9.90;;
54539;SDS011;40438;52.992;18.604;2023-06-14T04:54:15;12.85;;;9.20;;
54539;SDS011;40438;52.992;18.604;2023-06-14T04:56:42;12.20;;;8.45;;
54539;SDS011;40438;52.992;18.604;2023-06-14T04:59:09;10.85;;;8.07;;
54539;SDS011;40438;52.992;18.604;2023-06-14T05:01:35;17.48;;;8.90;;
54539;SDS011;40438;52.992;18.604;2023-06-14T05:04:00;14.02;;;8.63;;
54539;SDS011;40438;52.992;18.604;2023-06-14T05:06:28;14.07;;;9.18;;
54539;SDS011;40438;52.992;18.604;2023-06-14T05:08:54;17.75;;;8.40;;
54539;SDS011;40438;52.992;18.604;2023-06-14T05:11:20;13.18;;;8.10;;
54539;SDS011;40438;52.992;18.604;2023-06-14T05:13:45;13.32;;;8.48;;
54539;SDS011;40438;52.992;18.604;2023-06-14T05:16:12;13.30;;;7.82;;
54539;SDS011;40438;52.992;18.604;2023-06-14T05:18:38;15.20;;;8.40;;
54539;SDS011;40438;52.992;18.604;2023-06-14T05:21:04;12.80;;;7.15;;
54539;SDS011;40438;52.992;18.604;2023-06-14T05:23:31;12.10;;;7.35;;
54539;SDS011;40438;52.992;18.604;2023-06-14T05:25:57;15.70;;;7.90;;
54539;SDS011;40438;52.992;18.604;2023-06-14T05:28:23;13.63;;;7.40;;
54539;SDS011;40438;52.992;18.604;2023-06-14T05:30:49;16.77;;;8.25;;
54539;SDS011;40438;52.992;18.604;2023-06-14T05:33:15;13.88;;;8.32;;
54539;SDS011;40438;52.992;18.604;2023-06-14T05:35:40;13.25;;;8.73;;
54539;SDS011;40438;52.992;18.604;2023-06-14T05:38:06;15.77;;;7.78;;
54539;SDS011;40438;52.992;18.604;2023-06-14T05:40:33;15.18;;;8.13;;
54539;SDS011;40438;52.992;18.604;2023-06-14T05:42:59;13.70;;;8.25;;
54539;SDS011;40438;52.992;18.604;2023-06-14T05:45:25;14.50;;;8.32;;
54539;SDS011;40438;52.992;18.604;2023-06-14T05:47:51;14.55;;;8.20;;
54539;SDS011;40438;52.992;18.604;2023-06-14T05:50:17;14.00;;;7.82;;
54539;SDS011;40438;52.992;18.604;2023-06-14T05:52:43;15.75;;;7.47;;
54539;SDS011;40438;52.992;18.604;2023-06-14T05:55:09;14.68;;;7.80;;
54539;SDS011;40438;52.992;18.604;2023-06-14T05:57:36;13.30;;;8.50;;
54539;SDS011;40438;52.992;18.604;2023-06-14T06:00:02;12.98;;;8.18;;
54539;SDS011;40438;52.992;18.604;2023-06-14T06:02:37;11.00;;;7.75;;
54539;SDS011;40438;52.992;18.604;2023-06-14T06:05:03;10.70;;;7.32;;
54539;SDS011;40438;52.992;18.604;2023-06-14T06:07:29;11.48;;;8.35;;
54539;SDS011;40438;52.992;18.604;2023-06-14T06:09:55;12.60;;;9.02;;
54539;SDS011;40438;52.992;18.604;2023-06-14T06:12:21;17.48;;;9.25;;
54539;SDS011;40438;52.992;18.604;2023-06-14T06:14:48;11.93;;;7.82;;
54539;SDS011;40438;52.992;18.604;2023-06-14T06:17:14;13.13;;;8.13;;
54539;SDS011;40438;52.992;18.604;2023-06-14T06:19:40;16.13;;;9.00;;
54539;SDS011;40438;52.992;18.604;2023-06-14T06:22:05;13.85;;;7.70;;
54539;SDS011;40438;52.992;18.604;2023-06-14T06:24:31;15.38;;;9.10;;
54539;SDS011;40438;52.992;18.604;2023-06-14T06:26:57;14.35;;;8.07;;
54539;SDS011;40438;52.992;18.604;2023-06-14T06:29:23;16.38;;;8.10;;
54539;SDS011;40438;52.992;18.604;2023-06-14T06:31:50;15.38;;;7.40;;
54539;SDS011;40438;52.992;18.604;2023-06-14T06:34:16;14.18;;;8.13;;
54539;SDS011;40438;52.992;18.604;2023-06-14T06:36:41;11.93;;;7.00;;
54539;SDS011;40438;52.992;18.604;2023-06-14T06:39:07;11.43;;;7.80;;
54539;SDS011;40438;52.992;18.604;2023-06-14T06:41:33;12.18;;;7.32;;
54539;SDS011;40438;52.992;18.604;2023-06-14T06:43:59;13.02;;;7.68;;
54539;SDS011;40438;52.992;18.604;2023-06-14T06:46:28;12.15;;;6.95;;
54539;SDS011;40438;52.992;18.604;2023-06-14T06:48:55;12.52;;;6.70;;
54539;SDS011;40438;52.992;18.604;2023-06-14T06:51:21;10.52;;;6.70;;
54539;SDS011;40438;52.992;18.604;2023-06-14T06:53:51;11.48;;;7.13;;
54539;SDS011;40438;52.992;18.604;2023-06-14T06:56:18;13.40;;;6.55;;
54539;SDS011;40438;52.992;18.604;2023-06-14T06:58:43;11.50;;;6.95;;
54539;SDS011;40438;52.992;18.604;2023-06-14T07:01:09;11.95;;;7.28;;
54539;SDS011;40438;52.992;18.604;2023-06-14T07:03:35;14.60;;;7.90;;
54539;SDS011;40438;52.992;18.604;2023-06-14T07:06:02;13.98;;;7.85;;
54539;SDS011;40438;52.992;18.604;2023-06-14T07:08:29;13.23;;;8.05;;
54539;SDS011;40438;52.992;18.604;2023-06-14T07:10:54;16.92;;;8.30;;
54539;SDS011;40438;52.992;18.604;2023-06-14T07:13:20;16.73;;;7.97;;
54539;SDS011;40438;52.992;18.604;2023-06-14T07:15:47;15.15;;;8.68;;
54539;SDS011;40438;52.992;18.604;2023-06-14T07:18:13;15.20;;;9.10;;
54539;SDS011;40438;52.992;18.604;2023-06-14T07:20:39;14.73;;;9.13;;
54539;SDS011;40438;52.992;18.604;2023-06-14T07:23:06;15.85;;;8.98;;
54539;SDS011;40438;52.992;18.604;2023-06-14T07:25:32;15.63;;;7.78;;
54539;SDS011;40438;52.992;18.604;2023-06-14T07:27:58;12.00;;;7.80;;
54539;SDS011;40438;52.992;18.604;2023-06-14T07:30:23;11.20;;;7.55;;
54539;SDS011;40438;52.992;18.604;2023-06-14T07:32:49;12.27;;;8.50;;
54539;SDS011;40438;52.992;18.604;2023-06-14T07:35:15;13.73;;;8.45;;
54539;SDS011;40438;52.992;18.604;2023-06-14T07:37:41;11.55;;;8.00;;
54539;SDS011;40438;52.992;18.604;2023-06-14T07:40:09;13.35;;;8.10;;
54539;SDS011;40438;52.992;18.604;2023-06-14T07:42:35;16.52;;;8.82;;
54539;SDS011;40438;52.992;18.604;2023-06-14T07:45:01;14.95;;;8.68;;
54539;SDS011;40438;52.992;18.604;2023-06-14T07:47:27;16.58;;;8.80;;
54539;SDS011;40438;52.992;18.604;2023-06-14T07:49:53;19.08;;;9.38;;
54539;SDS011;40438;52.992;18.604;2023-06-14T07:52:19;13.93;;;8.75;;
54539;SDS011;40438;52.992;18.604;2023-06-14T07:54:44;16.73;;;8.75;;
54539;SDS011;40438;52.992;18.604;2023-06-14T07:57:12;14.73;;;7.85;;
54539;SDS011;40438;52.992;18.604;2023-06-14T07:59:37;14.30;;;8.43;;
54539;SDS011;40438;52.992;18.604;2023-06-14T08:02:03;14.38;;;8.48;;
54539;SDS011;40438;52.992;18.604;2023-06-14T08:04:29;15.73;;;8.88;;
54539;SDS011;40438;52.992;18.604;2023-06-14T08:06:56;15.98;;;8.38;;
54539;SDS011;40438;52.992;18.604;2023-06-14T08:09:22;22.40;;;8.77;;
54539;SDS011;40438;52.992;18.604;2023-06-14T08:11:48;16.67;;;9.10;;
54539;SDS011;40438;52.992;18.604;2023-06-14T08:14:15;15.73;;;8.32;;
54539;SDS011;40438;52.992;18.604;2023-06-14T08:16:41;12.60;;;8.80;;
54539;SDS011;40438;52.992;18.604;2023-06-14T08:19:07;15.25;;;7.93;;
54539;SDS011;40438;52.992;18.604;2023-06-14T08:21:33;17.40;;;8.20;;
54539;SDS011;40438;52.992;18.604;2023-06-14T08:23:58;17.15;;;8.32;;
54539;SDS011;40438;52.992;18.604;2023-06-14T08:26:24;12.70;;;7.38;;
54539;SDS011;40438;52.992;18.604;2023-06-14T08:28:50;13.00;;;7.30;;
54539;SDS011;40438;52.992;18.604;2023-06-14T08:31:17;11.10;;;7.10;;
54539;SDS011;40438;52.992;18.604;2023-06-14T08:33:43;13.25;;;7.32;;
54539;SDS011;40438;52.992;18.604;2023-06-14T08:36:09;12.95;;;7.97;;
54539;SDS011;40438;52.992;18.604;2023-06-14T08:38:35;15.43;;;7.50;;
54539;SDS011;40438;52.992;18.604;2023-06-14T08:41:00;15.07;;;8.35;;
54539;SDS011;40438;52.992;18.604;2023-06-14T08:43:27;14.43;;;8.73;;
54539;SDS011;40438;52.992;18.604;2023-06-14T08:45:54;11.77;;;8.02;;
54539;SDS011;40438;52.992;18.604;2023-06-14T08:48:25;13.70;;;8.23;;
54539;SDS011;40438;52.992;18.604;2023-06-14T08:50:52;12.50;;;8.10;;
54539;SDS011;40438;52.992;18.604;2023-06-14T08:53:20;14.13;;;8.27;;
54539;SDS011;40438;52.992;18.604;2023-06-14T08:55:47;16.70;;;8.00;;
54539;SDS011;40438;52.992;18.604;2023-06-14T08:58:13;14.10;;;8.32;;
54539;SDS011;40438;52.992;18.604;2023-06-14T09:00:39;15.68;;;7.97;;
54539;SDS011;40438;52.992;18.604;2023-06-14T09:03:05;18.92;;;8.02;;
54539;SDS011;40438;52.992;18.604;2023-06-14T09:05:32;14.27;;;7.38;;
54539;SDS011;40438;52.992;18.604;2023-06-14T09:07:58;13.25;;;7.93;;
54539;SDS011;40438;52.992;18.604;2023-06-14T09:10:24;15.32;;;8.85;;
54539;SDS011;40438;52.992;18.604;2023-06-14T09:12:50;16.38;;;9.50;;
54539;SDS011;40438;52.992;18.604;2023-06-14T09:15:16;17.77;;;9.25;;
54539;SDS011;40438;52.992;18.604;2023-06-14T09:17:42;14.68;;;9.15;;
54539;SDS011;40438;52.992;18.604;2023-06-14T09:20:09;14.32;;;9.10;;
54539;SDS011;40438;52.992;18.604;2023-06-14T09:22:36;14.77;;;8.82;;
54539;SDS011;40438;52.992;18.604;2023-06-14T09:25:03;15.00;;;8.95;;
54539;SDS011;40438;52.992;18.604;2023-06-14T09:27:29;15.77;;;8.25;;
54539;SDS011;40438;52.992;18.604;2023-06-14T09:29:54;12.35;;;7.53;;
54539;SDS011;40438;52.992;18.604;2023-06-14T09:32:20;12.57;;;7.93;;
54539;SDS011;40438;52.992;18.604;2023-06-14T09:34:47;15.70;;;8.55;;
54539;SDS011;40438;52.992;18.604;2023-06-14T09:37:12;14.43;;;8.50;;
54539;SDS011;40438;52.992;18.604;2023-06-14T09:39:52;18.77;;;7.88;;
54539;SDS011;40438;52.992;18.604;2023-06-14T09:42:18;14.73;;;8.63;;
54539;SDS011;40438;52.992;18.604;2023-06-14T09:44:44;11.75;;;8.05;;
54539;SDS011;40438;52.992;18.604;2023-06-14T09:47:12;15.35;;;8.48;;
54539;SDS011;40438;52.992;18.604;2023-06-14T09:49:39;14.15;;;8.60;;
54539;SDS011;40438;52.992;18.604;2023-06-14T09:52:05;14.35;;;8.40;;
54539;SDS011;40438;52.992;18.604;2023-06-14T09:54:35;13.38;;;8.20;;
54539;SDS011;40438;52.992;18.604;2023-06-14T09:57:06;13.70;;;7.90;;
54539;SDS011;40438;52.992;18.604;2023-06-14T09:59:34;12.85;;;7.75;;
54539;SDS011;40438;52.992;18.604;2023-06-14T10:02:03;15.60;;;7.28;;
54539;SDS011;40438;52.992;18.604;2023-06-14T10:04:32;13.68;;;7.57;;
54539;SDS011;40438;52.992;18.604;2023-06-14T10:06:59;10.75;;;7.57;;
54539;SDS011;40438;52.992;18.604;2023-06-14T10:09:26;11.15;;;6.70;;
54539;SDS011;40438;52.992;18.604;2023-06-14T10:11:53;11.68;;;6.03;;
54539;SDS011;40438;52.992;18.604;2023-06-14T10:14:21;10.77;;;6.82;;
54539;SDS011;40438;52.992;18.604;2023-06-14T10:16:50;11.93;;;7.07;;
54539;SDS011;40438;52.992;18.604;2023-06-14T10:19:22;12.18;;;8.05;;
54539;SDS011;40438;52.992;18.604;2023-06-14T10:21:53;11.55;;;6.78;;
54539;SDS011;40438;52.992;18.604;2023-06-14T10:24:25;11.70;;;7.00;;
54539;SDS011;40438;52.992;18.604;2023-06-14T10:26:56;11.60;;;6.18;;
54539;SDS011;40438;52.992;18.604;2023-06-14T10:29:24;13.65;;;6.55;;
54539;SDS011;40438;52.992;18.604;2023-06-14T10:31:50;12.10;;;6.55;;
54539;SDS011;40438;52.992;18.604;2023-06-14T10:34:22;14.52;;;5.93;;
54539;SDS011;40438;52.992;18.604;2023-06-14T10:36:50;12.38;;;5.95;;
54539;SDS011;40438;52.992;18.604;2023-06-14T10:39:26;12.75;;;6.43;;
54539;SDS011;40438;52.992;18.604;2023-06-14T10:41:52;14.10;;;5.40;;
54539;SDS011;40438;52.992;18.604;2023-06-14T10:47:25;9.50;;;6.03;;
54539;SDS011;40438;52.992;18.604;2023-06-14T10:49:53;11.82;;;5.82;;
54539;SDS011;40438;52.992;18.604;2023-06-14T10:52:26;10.90;;;5.93;;
54539;SDS011;40438;52.992;18.604;2023-06-14T10:57:40;13.60;;;6.45;;
54539;SDS011;40438;52.992;18.604;2023-06-14T11:00:09;7.15;;;4.88;;
54539;SDS011;40438;52.992;18.604;2023-06-14T11:02:45;7.88;;;4.20;;
54539;SDS011;40438;52.992;18.604;2023-06-14T11:05:16;7.25;;;4.05;;
54539;SDS011;40438;52.992;18.604;2023-06-14T11:10:23;7.90;;;3.65;;
54539;SDS011;40438;52.992;18.604;2023-06-14T11:12:57;8.65;;;3.90;;
54539;SDS011;40438;52.992;18.604;2023-06-14T11:15:29;10.07;;;3.53;;
54539;SDS011;40438;52.992;18.604;2023-06-14T11:17:55;10.88;;;3.90;;
54539;SDS011;40438;52.992;18.604;2023-06-14T11:20:21;7.97;;;3.85;;
54539;SDS011;40438;52.992;18.604;2023-06-14T11:22:50;6.80;;;2.33;;
54539;SDS011;40438;52.992;18.604;2023-06-14T11:25:16;7.20;;;2.60;;
54539;SDS011;40438;52.992;18.604;2023-06-14T11:27:43;9.23;;;3.08;;
54539;SDS011;40438;52.992;18.604;2023-06-14T11:30:09;7.32;;;3.40;;
54539;SDS011;40438;52.992;18.604;2023-06-14T11:32:38;8.52;;;3.60;;
54539;SDS011;40438;52.992;18.604;2023-06-14T11:35:04;6.72;;;3.45;;
54539;SDS011;40438;52.992;18.604;2023-06-14T11:37:31;10.50;;;3.88;;
54539;SDS011;40438;52.992;18.604;2023-06-14T11:39:57;6.72;;;3.55;;
54539;SDS011;40438;52.992;18.604;2023-06-14T11:42:24;4.97;;;2.97;;
54539;SDS011;40438;52.992;18.604;2023-06-14T11:44:51;7.88;;;3.55;;
54539;SDS011;40438;52.992;18.604;2023-06-14T11:47:18;7.43;;;3.83;;
54539;SDS011;40438;52.992;18.604;2023-06-14T11:49:45;7.80;;;4.07;;
54539;SDS011;40438;52.992;18.604;2023-06-14T11:52:11;7.80;;;3.47;;
54539;SDS011;40438;52.992;18.604;2023-06-14T11:54:37;6.90;;;3.47;;
54539;SDS011;40438;52.992;18.604;2023-06-14T11:57:04;5.65;;;3.78;;
54539;SDS011;40438;52.992;18.604;2023-06-14T11:59:31;5.20;;;3.67;;
54539;SDS011;40438;52.992;18.604;2023-06-14T12:01:57;5.78;;;3.50;;
54539;SDS011;40438;52.992;18.604;2023-06-14T12:04:26;5.40;;;3.78;;
54539;SDS011;40438;52.992;18.604;2023-06-14T12:06:54;6.05;;;3.47;;
54539;SDS011;40438;52.992;18.604;2023-06-14T12:09:19;6.80;;;3.47;;
54539;SDS011;40438;52.992;18.604;2023-06-14T12:11:45;8.00;;;3.20;;
54539;SDS011;40438;52.992;18.604;2023-06-14T12:14:11;4.78;;;3.45;;
54539;SDS011;40438;52.992;18.604;2023-06-14T12:16:37;5.40;;;3.50;;
54539;SDS011;40438;52.992;18.604;2023-06-14T12:19:11;7.95;;;3.67;;
54539;SDS011;40438;52.992;18.604;2023-06-14T12:21:38;7.80;;;3.35;;
54539;SDS011;40438;52.992;18.604;2023-06-14T12:24:06;5.20;;;3.58;;
54539;SDS011;40438;52.992;18.604;2023-06-14T12:26:32;5.75;;;3.35;;
54539;SDS011;40438;52.992;18.604;2023-06-14T12:28:58;5.15;;;3.53;;
54539;SDS011;40438;52.992;18.604;2023-06-14T12:31:24;7.85;;;3.70;;
54539;SDS011;40438;52.992;18.604;2023-06-14T12:33:50;8.05;;;3.72;;
54539;SDS011;40438;52.992;18.604;2023-06-14T12:36:16;8.05;;;3.58;;
54539;SDS011;40438;52.992;18.604;2023-06-14T12:38:42;5.22;;;3.67;;
54539;SDS011;40438;52.992;18.604;2023-06-14T12:41:09;5.43;;;3.70;;
54539;SDS011;40438;52.992;18.604;2023-06-14T12:43:35;6.18;;;3.60;;
54539;SDS011;40438;52.992;18.604;2023-06-14T12:46:00;10.02;;;4.00;;
54539;SDS011;40438;52.992;18.604;2023-06-14T12:48:26;5.95;;;3.80;;
54539;SDS011;40438;52.992;18.604;2023-06-14T12:50:52;5.95;;;3.53;;
54539;SDS011;40438;52.992;18.604;2023-06-14T12:53:18;5.18;;;3.60;;
54539;SDS011;40438;52.992;18.604;2023-06-14T12:55:44;6.32;;;3.33;;
54539;SDS011;40438;52.992;18.604;2023-06-14T12:58:11;6.32;;;2.80;;
54539;SDS011;40438;52.992;18.604;2023-06-14T13:00:37;5.82;;;2.65;;
54539;SDS011;40438;52.992;18.604;2023-06-14T13:03:03;5.00;;;3.30;;
54539;SDS011;40438;52.992;18.604;2023-06-14T13:05:29;4.13;;;3.28;;
54539;SDS011;40438;52.992;18.604;2023-06-14T13:07:54;3.42;;;2.85;;
54539;SDS011;40438;52.992;18.604;2023-06-14T13:10:20;7.88;;;2.90;;
54539;SDS011;40438;52.992;18.604;2023-06-14T13:12:46;3.30;;;2.45;;
54539;SDS011;40438;52.992;18.604;2023-06-14T13:15:13;3.75;;;2.45;;
54539;SDS011;40438;52.992;18.604;2023-06-14T13:17:39;5.63;;;3.55;;
54539;SDS011;40438;52.992;18.604;2023-06-14T13:20:05;7.28;;;2.75;;
54539;SDS011;40438;52.992;18.604;2023-06-14T13:22:31;4.15;;;3.10;;
54539;SDS011;40438;52.992;18.604;2023-06-14T13:24:57;7.32;;;2.83;;
54539;SDS011;40438;52.992;18.604;2023-06-14T13:27:23;9.48;;;2.70;;
54539;SDS011;40438;52.992;18.604;2023-06-14T13:29:48;3.92;;;2.00;;
54539;SDS011;40438;52.992;18.604;2023-06-14T13:32:16;4.35;;;2.20;;
54539;SDS011;40438;52.992;18.604;2023-06-14T13:34:41;4.20;;;2.22;;
54539;SDS011;40438;52.992;18.604;2023-06-14T13:37:07;2.88;;;2.10;;
54539;SDS011;40438;52.992;18.604;2023-06-14T13:39:33;5.45;;;2.40;;
54539;SDS011;40438;52.992;18.604;2023-06-14T13:41:59;3.33;;;2.35;;
54539;SDS011;40438;52.992;18.604;2023-06-14T13:44:25;4.43;;;2.38;;
54539;SDS011;40438;52.992;18.604;2023-06-14T13:46:50;3.20;;;2.40;;
54539;SDS011;40438;52.992;18.604;2023-06-14T13:49:17;3.78;;;2.00;;
54539;SDS011;40438;52.992;18.604;2023-06-14T13:51:43;3.95;;;2.45;;
54539;SDS011;40438;52.992;18.604;2023-06-14T13:54:11;5.03;;;2.20;;
54539;SDS011;40438;52.992;18.604;2023-06-14T13:56:38;3.95;;;2.75;;
54539;SDS011;40438;52.992;18.604;2023-06-14T13:59:03;3.50;;;2.13;;
54539;SDS011;40438;52.992;18.604;2023-06-14T14:01:29;4.65;;;2.65;;
54539;SDS011;40438;52.992;18.604;2023-06-14T14:03:55;5.38;;;2.70;;
54539;SDS011;40438;52.992;18.604;2023-06-14T14:06:22;6.97;;;2.40;;
54539;SDS011;40438;52.992;18.604;2023-06-14T14:08:48;3.10;;;2.30;;
54539;SDS011;40438;52.992;18.604;2023-06-14T14:11:14;3.67;;;2.20;;
54539;SDS011;40438;52.992;18.604;2023-06-14T14:13:40;3.50;;;2.40;;
54539;SDS011;40438;52.992;18.604;2023-06-14T14:16:05;3.28;;;2.20;;
54539;SDS011;40438;52.992;18.604;2023-06-14T14:18:31;3.95;;;2.58;;
54539;SDS011;40438;52.992;18.604;2023-06-14T14:20:57;6.47;;;2.72;;
54539;SDS011;40438;52.992;18.604;2023-06-14T14:23:25;3.80;;;2.45;;
54539;SDS011;40438;52.992;18.604;2023-06-14T14:25:50;2.92;;;2.35;;
54539;SDS011;40438;52.992;18.604;2023-06-14T14:28:16;3.58;;;2.35;;
54539;SDS011;40438;52.992;18.604;2023-06-14T14:30:42;3.03;;;2.22;;